sensor_id;sensor_type;location;lat;lon;timestamp;P1;durP1;ratioP1;P2;durP2;ratioP2
69795;SDS011;57073;45.650;9.612;2023-05-17T00:01:51;18.67;;;13.63;;
69795;SDS011;57073;45.650;9.612;2023-05-17T00:06:51;19.77;;;13.43;;
69795;SDS011;57073;45.650;9.612;2023-05-17T00:11:52;20.73;;;13.43;;
69795;SDS011;57073;45.650;9.612;2023-05-17T00:16:52;22.03;;;14.07;;
69795;SDS011;57073;45.650;9.612;2023-05-17T00:21:52;23.03;;;13.70;;
69795;SDS011;57073;45.650;9.612;2023-05-17T00:26:53;19.37;;;13.50;;
69795;SDS011;57073;45.650;9.612;2023-05-17T00:31:53;18.23;;;12.33;;
69795;SDS011;57073;45.650;9.612;2023-05-17T00:36:53;18.37;;;12.40;;
69795;SDS011;57073;45.650;9.612;2023-05-17T00:41:54;17.87;;;12.03;;
69795;SDS011;57073;45.650;9.612;2023-05-17T00:46:54;19.87;;;13.53;;
69795;SDS011;57073;45.650;9.612;2023-05-17T00:51:54;18.90;;;11.60;;
69795;SDS011;57073;45.650;9.612;2023-05-17T00:56:55;15.17;;;10.67;;
69795;SDS011;57073;45.650;9.612;2023-05-17T01:01:56;15.27;;;9.63;;
69795;SDS011;57073;45.650;9.612;2023-05-17T01:06:57;15.50;;;10.23;;
69795;SDS011;57073;45.650;9.612;2023-05-17T01:12:06;16.70;;;10.43;;
69795;SDS011;57073;45.650;9.612;2023-05-17T01:17:16;15.77;;;9.32;;
69795;SDS011;57073;45.650;9.612;2023-05-17T01:27:45;13.07;;;8.68;;
69795;SDS011;57073;45.650;9.612;2023-05-17T01:32:48;15.02;;;9.23;;
69795;SDS011;57073;45.650;9.612;2023-05-17T01:37:51;16.43;;;8.73;;
69795;SDS011;57073;45.650;9.612;2023-05-17T01:42:56;13.27;;;8.82;;
69795;SDS011;57073;45.650;9.612;2023-05-17T01:48:12;12.80;;;8.07;;
69795;SDS011;57073;45.650;9.612;2023-05-17T01:53:21;10.13;;;6.23;;
69795;SDS011;57073;45.650;9.612;2023-05-17T01:58:55;12.55;;;8.13;;
69795;SDS011;57073;45.650;9.612;2023-05-17T02:03:58;12.07;;;7.73;;
69795;SDS011;57073;45.650;9.612;2023-05-17T02:08:58;11.57;;;6.63;;
69795;SDS011;57073;45.650;9.612;2023-05-17T02:14:01;10.00;;;6.73;;
69795;SDS011;57073;45.650;9.612;2023-05-17T02:19:01;9.10;;;6.30;;
69795;SDS011;57073;45.650;9.612;2023-05-17T02:24:02;10.00;;;6.87;;
69795;SDS011;57073;45.650;9.612;2023-05-17T02:29:02;11.87;;;7.67;;
69795;SDS011;57073;45.650;9.612;2023-05-17T02:34:03;11.87;;;8.23;;
69795;SDS011;57073;45.650;9.612;2023-05-17T02:39:03;12.63;;;8.73;;
69795;SDS011;57073;45.650;9.612;2023-05-17T02:44:03;16.15;;;9.02;;
69795;SDS011;57073;45.650;9.612;2023-05-17T02:49:04;15.37;;;9.43;;
69795;SDS011;57073;45.650;9.612;2023-05-17T02:54:04;14.32;;;9.23;;
69795;SDS011;57073;45.650;9.612;2023-05-17T02:59:05;16.77;;;9.10;;
69795;SDS011;57073;45.650;9.612;2023-05-17T03:04:05;15.33;;;9.90;;
69795;SDS011;57073;45.650;9.612;2023-05-17T03:09:05;18.30;;;9.98;;
69795;SDS011;57073;45.650;9.612;2023-05-17T03:14:06;15.27;;;10.27;;
69795;SDS011;57073;45.650;9.612;2023-05-17T03:19:06;18.07;;;11.50;;
69795;SDS011;57073;45.650;9.612;2023-05-17T03:24:07;19.37;;;10.17;;
69795;SDS011;57073;45.650;9.612;2023-05-17T03:29:07;14.93;;;10.73;;
69795;SDS011;57073;45.650;9.612;2023-05-17T03:34:07;18.37;;;10.90;;
69795;SDS011;57073;45.650;9.612;2023-05-17T03:39:08;19.03;;;11.80;;
69795;SDS011;57073;45.650;9.612;2023-05-17T03:44:08;19.87;;;12.60;;
69795;SDS011;57073;45.650;9.612;2023-05-17T03:49:08;21.57;;;12.43;;
69795;SDS011;57073;45.650;9.612;2023-05-17T03:54:09;21.37;;;11.83;;
69795;SDS011;57073;45.650;9.612;2023-05-17T03:59:10;17.63;;;12.27;;
69795;SDS011;57073;45.650;9.612;2023-05-17T04:04:10;18.37;;;13.00;;
69795;SDS011;57073;45.650;9.612;2023-05-17T04:09:10;20.55;;;12.40;;
69795;SDS011;57073;45.650;9.612;2023-05-17T04:14:12;19.27;;;13.20;;
69795;SDS011;57073;45.650;9.612;2023-05-17T04:19:13;16.25;;;9.52;;
69795;SDS011;57073;45.650;9.612;2023-05-17T04:24:13;15.73;;;8.90;;
69795;SDS011;57073;45.650;9.612;2023-05-17T04:29:14;13.17;;;8.57;;
69795;SDS011;57073;45.650;9.612;2023-05-17T04:34:14;13.87;;;7.93;;
69795;SDS011;57073;45.650;9.612;2023-05-17T04:39:15;16.17;;;7.83;;
69795;SDS011;57073;45.650;9.612;2023-05-17T04:44:16;13.82;;;8.18;;
69795;SDS011;57073;45.650;9.612;2023-05-17T04:49:17;14.47;;;9.17;;
69795;SDS011;57073;45.650;9.612;2023-05-17T04:54:17;14.07;;;8.40;;
69795;SDS011;57073;45.650;9.612;2023-05-17T04:59:18;14.80;;;8.77;;
69795;SDS011;57073;45.650;9.612;2023-05-17T05:04:18;14.43;;;8.50;;
69795;SDS011;57073;45.650;9.612;2023-05-17T05:09:18;12.80;;;8.50;;
69795;SDS011;57073;45.650;9.612;2023-05-17T05:14:19;12.10;;;7.97;;
69795;SDS011;57073;45.650;9.612;2023-05-17T05:19:19;14.97;;;8.63;;
69795;SDS011;57073;45.650;9.612;2023-05-17T05:24:20;15.43;;;7.70;;
69795;SDS011;57073;45.650;9.612;2023-05-17T05:29:20;16.23;;;8.20;;
69795;SDS011;57073;45.650;9.612;2023-05-17T05:34:21;15.33;;;8.43;;
69795;SDS011;57073;45.650;9.612;2023-05-17T05:39:21;12.30;;;8.10;;
69795;SDS011;57073;45.650;9.612;2023-05-17T05:44:21;16.53;;;8.90;;
69795;SDS011;57073;45.650;9.612;2023-05-17T05:49:22;12.97;;;7.37;;
69795;SDS011;57073;45.650;9.612;2023-05-17T05:54:22;14.43;;;8.83;;
69795;SDS011;57073;45.650;9.612;2023-05-17T05:59:22;15.63;;;9.07;;
69795;SDS011;57073;45.650;9.612;2023-05-17T06:04:23;15.07;;;8.30;;
69795;SDS011;57073;45.650;9.612;2023-05-17T06:09:24;11.48;;;8.30;;
69795;SDS011;57073;45.650;9.612;2023-05-17T06:14:24;15.17;;;9.30;;
69795;SDS011;57073;45.650;9.612;2023-05-17T06:19:24;20.63;;;9.20;;
69795;SDS011;57073;45.650;9.612;2023-05-17T06:24:25;14.70;;;9.33;;
69795;SDS011;57073;45.650;9.612;2023-05-17T06:29:25;16.70;;;8.87;;
69795;SDS011;57073;45.650;9.612;2023-05-17T06:34:25;15.30;;;9.13;;
69795;SDS011;57073;45.650;9.612;2023-05-17T06:39:26;16.17;;;9.57;;
69795;SDS011;57073;45.650;9.612;2023-05-17T06:44:26;17.93;;;10.33;;
69795;SDS011;57073;45.650;9.612;2023-05-17T06:49:26;17.63;;;11.63;;
69795;SDS011;57073;45.650;9.612;2023-05-17T06:54:27;17.67;;;12.07;;
69795;SDS011;57073;45.650;9.612;2023-05-17T06:59:27;23.20;;;13.77;;
69795;SDS011;57073;45.650;9.612;2023-05-17T07:04:28;19.43;;;12.47;;
69795;SDS011;57073;45.650;9.612;2023-05-17T07:09:28;15.67;;;10.17;;
69795;SDS011;57073;45.650;9.612;2023-05-17T07:14:29;17.20;;;10.10;;
69795;SDS011;57073;45.650;9.612;2023-05-17T07:19:29;14.37;;;8.07;;
69795;SDS011;57073;45.650;9.612;2023-05-17T07:24:29;10.73;;;6.17;;
69795;SDS011;57073;45.650;9.612;2023-05-17T07:29:30;7.90;;;5.13;;
69795;SDS011;57073;45.650;9.612;2023-05-17T07:34:31;7.77;;;4.67;;
69795;SDS011;57073;45.650;9.612;2023-05-17T07:39:31;8.30;;;4.27;;
69795;SDS011;57073;45.650;9.612;2023-05-17T07:44:32;7.10;;;4.23;;
69795;SDS011;57073;45.650;9.612;2023-05-17T07:49:32;6.80;;;4.03;;
69795;SDS011;57073;45.650;9.612;2023-05-17T07:54:32;9.40;;;4.83;;
69795;SDS011;57073;45.650;9.612;2023-05-17T07:59:33;6.38;;;3.85;;
69795;SDS011;57073;45.650;9.612;2023-05-17T08:04:33;6.60;;;4.40;;
69795;SDS011;57073;45.650;9.612;2023-05-17T08:09:34;12.73;;;7.20;;
69795;SDS011;57073;45.650;9.612;2023-05-17T08:14:35;13.83;;;6.50;;
69795;SDS011;57073;45.650;9.612;2023-05-17T08:19:35;11.00;;;6.00;;
69795;SDS011;57073;45.650;9.612;2023-05-17T08:24:36;11.25;;;7.00;;
69795;SDS011;57073;45.650;9.612;2023-05-17T08:29:37;10.40;;;5.50;;
69795;SDS011;57073;45.650;9.612;2023-05-17T08:34:37;8.80;;;5.27;;
69795;SDS011;57073;45.650;9.612;2023-05-17T08:39:37;17.60;;;9.20;;
69795;SDS011;57073;45.650;9.612;2023-05-17T08:44:38;14.00;;;7.80;;
69795;SDS011;57073;45.650;9.612;2023-05-17T08:49:38;13.90;;;7.73;;
69795;SDS011;57073;45.650;9.612;2023-05-17T08:54:39;9.48;;;5.63;;
69795;SDS011;57073;45.650;9.612;2023-05-17T08:59:40;7.37;;;4.53;;
69795;SDS011;57073;45.650;9.612;2023-05-17T09:04:41;10.38;;;5.22;;
69795;SDS011;57073;45.650;9.612;2023-05-17T09:09:43;7.03;;;4.70;;
69795;SDS011;57073;45.650;9.612;2023-05-17T09:14:44;9.63;;;4.97;;
69795;SDS011;57073;45.650;9.612;2023-05-17T09:19:45;7.97;;;5.00;;
69795;SDS011;57073;45.650;9.612;2023-05-17T09:24:46;8.73;;;4.90;;
69795;SDS011;57073;45.650;9.612;2023-05-17T09:29:46;11.50;;;6.03;;
69795;SDS011;57073;45.650;9.612;2023-05-17T09:34:47;13.63;;;6.73;;
69795;SDS011;57073;45.650;9.612;2023-05-17T09:39:48;9.27;;;5.27;;
69795;SDS011;57073;45.650;9.612;2023-05-17T09:44:52;8.40;;;4.57;;
69795;SDS011;57073;45.650;9.612;2023-05-17T09:49:57;9.05;;;4.22;;
69795;SDS011;57073;45.650;9.612;2023-05-17T09:55:01;6.78;;;4.45;;
69795;SDS011;57073;45.650;9.612;2023-05-17T10:00:02;9.47;;;3.97;;
69795;SDS011;57073;45.650;9.612;2023-05-17T10:05:11;6.67;;;4.03;;
69795;SDS011;57073;45.650;9.612;2023-05-17T10:10:11;6.03;;;3.75;;
69795;SDS011;57073;45.650;9.612;2023-05-17T10:15:13;6.77;;;3.83;;
69795;SDS011;57073;45.650;9.612;2023-05-17T10:20:16;5.97;;;3.40;;
69795;SDS011;57073;45.650;9.612;2023-05-17T10:25:17;6.68;;;3.70;;
69795;SDS011;57073;45.650;9.612;2023-05-17T10:30:18;6.97;;;4.30;;
69795;SDS011;57073;45.650;9.612;2023-05-17T10:35:19;8.40;;;5.40;;
69795;SDS011;57073;45.650;9.612;2023-05-17T10:40:20;8.77;;;5.78;;
69795;SDS011;57073;45.650;9.612;2023-05-17T10:45:23;9.95;;;7.25;;
69795;SDS011;57073;45.650;9.612;2023-05-17T10:50:25;8.43;;;6.90;;
69795;SDS011;57073;45.650;9.612;2023-05-17T10:55:46;10.43;;;7.65;;
69795;SDS011;57073;45.650;9.612;2023-05-17T11:00:47;8.07;;;5.93;;
69795;SDS011;57073;45.650;9.612;2023-05-17T11:11:10;14.38;;;8.13;;
69795;SDS011;57073;45.650;9.612;2023-05-17T11:16:13;13.33;;;5.77;;
69795;SDS011;57073;45.650;9.612;2023-05-17T11:21:16;12.40;;;6.70;;
69795;SDS011;57073;45.650;9.612;2023-05-17T11:26:22;7.97;;;4.93;;
69795;SDS011;57073;45.650;9.612;2023-05-17T11:31:28;8.17;;;3.70;;
69795;SDS011;57073;45.650;9.612;2023-05-17T11:36:47;5.38;;;3.75;;
69795;SDS011;57073;45.650;9.612;2023-05-17T11:41:51;4.15;;;3.10;;
69795;SDS011;57073;45.650;9.612;2023-05-17T11:47:02;5.03;;;3.10;;
69795;SDS011;57073;45.650;9.612;2023-05-17T11:52:04;4.68;;;3.50;;
69795;SDS011;57073;45.650;9.612;2023-05-17T11:57:05;4.57;;;3.42;;
69795;SDS011;57073;45.650;9.612;2023-05-17T12:02:06;7.77;;;3.30;;
69795;SDS011;57073;45.650;9.612;2023-05-17T12:07:09;4.80;;;3.30;;
69795;SDS011;57073;45.650;9.612;2023-05-17T12:12:10;4.03;;;2.97;;
69795;SDS011;57073;45.650;9.612;2023-05-17T12:17:12;4.50;;;3.07;;
69795;SDS011;57073;45.650;9.612;2023-05-17T12:22:20;4.67;;;2.97;;
69795;SDS011;57073;45.650;9.612;2023-05-17T12:27:24;5.67;;;3.60;;
69795;SDS011;57073;45.650;9.612;2023-05-17T12:32:30;6.43;;;4.27;;
69795;SDS011;57073;45.650;9.612;2023-05-17T12:37:30;5.37;;;4.10;;
69795;SDS011;57073;45.650;9.612;2023-05-17T12:42:31;6.17;;;4.00;;
69795;SDS011;57073;45.650;9.612;2023-05-17T12:47:31;6.33;;;3.43;;
69795;SDS011;57073;45.650;9.612;2023-05-17T12:52:32;6.33;;;4.50;;
69795;SDS011;57073;45.650;9.612;2023-05-17T12:57:34;6.35;;;4.20;;
69795;SDS011;57073;45.650;9.612;2023-05-17T13:02:34;7.27;;;4.70;;
69795;SDS011;57073;45.650;9.612;2023-05-17T13:07:34;6.57;;;4.00;;
69795;SDS011;57073;45.650;9.612;2023-05-17T13:12:35;10.37;;;6.23;;
69795;SDS011;57073;45.650;9.612;2023-05-17T13:17:38;8.20;;;4.33;;
69795;SDS011;57073;45.650;9.612;2023-05-17T13:22:46;6.57;;;4.47;;
69795;SDS011;57073;45.650;9.612;2023-05-17T13:27:47;6.10;;;3.65;;
69795;SDS011;57073;45.650;9.612;2023-05-17T13:32:49;5.27;;;3.27;;
69795;SDS011;57073;45.650;9.612;2023-05-17T13:37:49;4.30;;;3.03;;
69795;SDS011;57073;45.650;9.612;2023-05-17T13:42:50;5.15;;;3.30;;
69795;SDS011;57073;45.650;9.612;2023-05-17T13:47:50;5.83;;;3.30;;
69795;SDS011;57073;45.650;9.612;2023-05-17T13:52:51;7.27;;;3.70;;
69795;SDS011;57073;45.650;9.612;2023-05-17T13:57:51;5.07;;;3.50;;
69795;SDS011;57073;45.650;9.612;2023-05-17T14:02:52;5.00;;;3.37;;
69795;SDS011;57073;45.650;9.612;2023-05-17T14:07:52;7.17;;;3.23;;
69795;SDS011;57073;45.650;9.612;2023-05-17T14:12:52;4.77;;;3.77;;
69795;SDS011;57073;45.650;9.612;2023-05-17T14:17:53;6.23;;;3.70;;
69795;SDS011;57073;45.650;9.612;2023-05-17T14:22:53;4.83;;;3.80;;
69795;SDS011;57073;45.650;9.612;2023-05-17T14:27:53;6.87;;;4.10;;
69795;SDS011;57073;45.650;9.612;2023-05-17T14:32:54;8.37;;;4.57;;
69795;SDS011;57073;45.650;9.612;2023-05-17T14:37:54;6.57;;;4.30;;
69795;SDS011;57073;45.650;9.612;2023-05-17T14:42:55;8.35;;;4.25;;
69795;SDS011;57073;45.650;9.612;2023-05-17T14:47:55;6.77;;;4.57;;
69795;SDS011;57073;45.650;9.612;2023-05-17T14:52:56;6.30;;;4.50;;
69795;SDS011;57073;45.650;9.612;2023-05-17T14:57:56;8.40;;;4.50;;
69795;SDS011;57073;45.650;9.612;2023-05-17T15:02:56;6.70;;;4.13;;
69795;SDS011;57073;45.650;9.612;2023-05-17T15:07:57;5.37;;;4.33;;
69795;SDS011;57073;45.650;9.612;2023-05-17T15:12:57;8.07;;;4.60;;
69795;SDS011;57073;45.650;9.612;2023-05-17T15:17:57;7.73;;;4.90;;
69795;SDS011;57073;45.650;9.612;2023-05-17T15:22:59;8.20;;;5.30;;
69795;SDS011;57073;45.650;9.612;2023-05-17T15:27:59;6.65;;;5.43;;
69795;SDS011;57073;45.650;9.612;2023-05-17T15:32:59;9.33;;;5.53;;
69795;SDS011;57073;45.650;9.612;2023-05-17T15:38:02;9.97;;;5.90;;
69795;SDS011;57073;45.650;9.612;2023-05-17T15:43:06;10.70;;;5.60;;
69795;SDS011;57073;45.650;9.612;2023-05-17T15:48:06;7.90;;;4.90;;
69795;SDS011;57073;45.650;9.612;2023-05-17T15:53:06;7.27;;;4.83;;
69795;SDS011;57073;45.650;9.612;2023-05-17T15:58:07;7.23;;;5.00;;
69795;SDS011;57073;45.650;9.612;2023-05-17T16:03:09;8.10;;;4.97;;
69795;SDS011;57073;45.650;9.612;2023-05-17T16:08:10;8.10;;;5.10;;
69795;SDS011;57073;45.650;9.612;2023-05-17T16:13:11;6.77;;;5.23;;
69795;SDS011;57073;45.650;9.612;2023-05-17T16:18:11;8.30;;;5.50;;
69795;SDS011;57073;45.650;9.612;2023-05-17T16:23:14;6.82;;;5.05;;
69795;SDS011;57073;45.650;9.612;2023-05-17T16:28:14;7.83;;;5.23;;
69795;SDS011;57073;45.650;9.612;2023-05-17T16:33:14;8.37;;;5.37;;
69795;SDS011;57073;45.650;9.612;2023-05-17T16:38:15;13.63;;;5.53;;
69795;SDS011;57073;45.650;9.612;2023-05-17T16:43:15;7.53;;;5.47;;
69795;SDS011;57073;45.650;9.612;2023-05-17T16:48:16;7.28;;;5.05;;
69795;SDS011;57073;45.650;9.612;2023-05-17T16:53:16;8.33;;;4.63;;
69795;SDS011;57073;45.650;9.612;2023-05-17T16:58:17;7.63;;;4.93;;
69795;SDS011;57073;45.650;9.612;2023-05-17T17:03:17;7.97;;;5.03;;
69795;SDS011;57073;45.650;9.612;2023-05-17T17:08:18;9.07;;;5.57;;
69795;SDS011;57073;45.650;9.612;2023-05-17T17:13:18;7.13;;;5.00;;
69795;SDS011;57073;45.650;9.612;2023-05-17T17:18:18;7.13;;;5.23;;
69795;SDS011;57073;45.650;9.612;2023-05-17T17:23:19;9.33;;;5.60;;
69795;SDS011;57073;45.650;9.612;2023-05-17T17:28:19;10.07;;;5.23;;
69795;SDS011;57073;45.650;9.612;2023-05-17T17:33:19;8.73;;;5.57;;
69795;SDS011;57073;45.650;9.612;2023-05-17T17:38:20;10.37;;;5.60;;
69795;SDS011;57073;45.650;9.612;2023-05-17T17:43:20;7.60;;;5.37;;
69795;SDS011;57073;45.650;9.612;2023-05-17T17:48:21;7.63;;;5.80;;
69795;SDS011;57073;45.650;9.612;2023-05-17T17:53:21;8.20;;;5.18;;
69795;SDS011;57073;45.650;9.612;2023-05-17T17:58:22;6.97;;;5.17;;
69795;SDS011;57073;45.650;9.612;2023-05-17T18:03:22;7.77;;;5.47;;
69795;SDS011;57073;45.650;9.612;2023-05-17T18:08:22;8.87;;;5.90;;
69795;SDS011;57073;45.650;9.612;2023-05-17T18:13:23;9.93;;;5.77;;
69795;SDS011;57073;45.650;9.612;2023-05-17T18:18:23;11.53;;;5.50;;
69795;SDS011;57073;45.650;9.612;2023-05-17T18:23:23;8.37;;;5.73;;
69795;SDS011;57073;45.650;9.612;2023-05-17T18:28:24;8.80;;;5.70;;
69795;SDS011;57073;45.650;9.612;2023-05-17T18:33:24;8.50;;;5.90;;
69795;SDS011;57073;45.650;9.612;2023-05-17T18:38:26;8.65;;;5.80;;
69795;SDS011;57073;45.650;9.612;2023-05-17T18:43:28;9.80;;;5.60;;
69795;SDS011;57073;45.650;9.612;2023-05-17T18:48:29;10.88;;;5.60;;
69795;SDS011;57073;45.650;9.612;2023-05-17T18:53:34;8.35;;;5.72;;
69795;SDS011;57073;45.650;9.612;2023-05-17T18:58:35;8.93;;;5.83;;
69795;SDS011;57073;45.650;9.612;2023-05-17T19:03:35;9.90;;;5.47;;
69795;SDS011;57073;45.650;9.612;2023-05-17T19:08:35;8.30;;;5.90;;
69795;SDS011;57073;45.650;9.612;2023-05-17T19:13:36;9.05;;;5.85;;
69795;SDS011;57073;45.650;9.612;2023-05-17T19:18:37;10.40;;;6.00;;
69795;SDS011;57073;45.650;9.612;2023-05-17T19:23:37;8.27;;;5.87;;
69795;SDS011;57073;45.650;9.612;2023-05-17T19:28:38;7.13;;;5.03;;
69795;SDS011;57073;45.650;9.612;2023-05-17T19:33:38;10.60;;;5.03;;
69795;SDS011;57073;45.650;9.612;2023-05-17T19:38:39;6.10;;;3.95;;
69795;SDS011;57073;45.650;9.612;2023-05-17T19:43:40;7.37;;;4.83;;
69795;SDS011;57073;45.650;9.612;2023-05-17T19:48:41;7.20;;;5.32;;
69795;SDS011;57073;45.650;9.612;2023-05-17T19:53:41;5.85;;;4.20;;
69795;SDS011;57073;45.650;9.612;2023-05-17T19:58:41;6.13;;;4.70;;
69795;SDS011;57073;45.650;9.612;2023-05-17T20:03:42;5.80;;;3.90;;
69795;SDS011;57073;45.650;9.612;2023-05-17T20:08:43;5.50;;;3.58;;
69795;SDS011;57073;45.650;9.612;2023-05-17T20:13:44;9.20;;;4.40;;
69795;SDS011;57073;45.650;9.612;2023-05-17T20:18:45;6.55;;;4.60;;
69795;SDS011;57073;45.650;9.612;2023-05-17T20:23:45;7.03;;;5.07;;
69795;SDS011;57073;45.650;9.612;2023-05-17T20:28:46;8.93;;;6.05;;
69795;SDS011;57073;45.650;9.612;2023-05-17T20:33:47;8.47;;;4.93;;
69795;SDS011;57073;45.650;9.612;2023-05-17T20:38:48;7.57;;;5.67;;
69795;SDS011;57073;45.650;9.612;2023-05-17T20:43:48;11.47;;;5.70;;
69795;SDS011;57073;45.650;9.612;2023-05-17T20:48:48;9.27;;;5.70;;
69795;SDS011;57073;45.650;9.612;2023-05-17T20:53:49;9.33;;;5.87;;
69795;SDS011;57073;45.650;9.612;2023-05-17T20:58:50;11.13;;;6.50;;
69795;SDS011;57073;45.650;9.612;2023-05-17T21:03:50;10.57;;;6.37;;
69795;SDS011;57073;45.650;9.612;2023-05-17T21:08:51;8.57;;;6.07;;
69795;SDS011;57073;45.650;9.612;2023-05-17T21:13:51;10.47;;;6.33;;
69795;SDS011;57073;45.650;9.612;2023-05-17T21:18:52;11.93;;;7.10;;
69795;SDS011;57073;45.650;9.612;2023-05-17T21:23:52;14.83;;;7.23;;
69795;SDS011;57073;45.650;9.612;2023-05-17T21:28:53;11.53;;;6.83;;
69795;SDS011;57073;45.650;9.612;2023-05-17T21:33:53;9.63;;;5.87;;
69795;SDS011;57073;45.650;9.612;2023-05-17T21:38:53;9.67;;;5.97;;
69795;SDS011;57073;45.650;9.612;2023-05-17T21:43:54;11.77;;;5.77;;
69795;SDS011;57073;45.650;9.612;2023-05-17T21:48:54;11.00;;;6.10;;
69795;SDS011;57073;45.650;9.612;2023-05-17T21:53:55;8.60;;;5.80;;
69795;SDS011;57073;45.650;9.612;2023-05-17T21:58:55;8.45;;;5.53;;
69795;SDS011;57073;45.650;9.612;2023-05-17T22:03:55;7.53;;;5.00;;
69795;SDS011;57073;45.650;9.612;2023-05-17T22:08:56;7.20;;;4.85;;
69795;SDS011;57073;45.650;9.612;2023-05-17T22:13:56;7.67;;;5.23;;
69795;SDS011;57073;45.650;9.612;2023-05-17T22:18:57;10.87;;;5.50;;
69795;SDS011;57073;45.650;9.612;2023-05-17T22:23:59;9.70;;;5.80;;
69795;SDS011;57073;45.650;9.612;2023-05-17T22:28:59;9.97;;;5.50;;
69795;SDS011;57073;45.650;9.612;2023-05-17T22:34:00;10.53;;;5.80;;
69795;SDS011;57073;45.650;9.612;2023-05-17T22:39:00;10.13;;;5.40;;
69795;SDS011;57073;45.650;9.612;2023-05-17T22:44:01;10.70;;;6.10;;
69795;SDS011;57073;45.650;9.612;2023-05-17T22:49:01;10.27;;;5.97;;
69795;SDS011;57073;45.650;9.612;2023-05-17T22:54:01;9.97;;;6.30;;
69795;SDS011;57073;45.650;9.612;2023-05-17T22:59:02;9.47;;;6.57;;
69795;SDS011;57073;45.650;9.612;2023-05-17T23:04:02;10.43;;;6.90;;
69795;SDS011;57073;45.650;9.612;2023-05-17T23:09:03;17.43;;;7.47;;
69795;SDS011;57073;45.650;9.612;2023-05-17T23:14:04;12.85;;;7.07;;
69795;SDS011;57073;45.650;9.612;2023-05-17T23:19:04;12.10;;;6.80;;
69795;SDS011;57073;45.650;9.612;2023-05-17T23:24:05;11.37;;;6.47;;
69795;SDS011;57073;45.650;9.612;2023-05-17T23:29:06;10.30;;;6.90;;
69795;SDS011;57073;45.650;9.612;2023-05-17T23:34:09;11.00;;;7.27;;
69795;SDS011;57073;45.650;9.612;2023-05-17T23:39:10;12.68;;;7.57;;
69795;SDS011;57073;45.650;9.612;2023-05-17T23:44:10;14.27;;;8.00;;
69795;SDS011;57073;45.650;9.612;2023-05-17T23:49:11;12.57;;;8.03;;
69795;SDS011;57073;45.650;9.612;2023-05-17T23:54:11;10.80;;;7.50;;
69795;SDS011;57073;45.650;9.612;2023-05-17T23:59:12;10.97;;;7.40;;
